Time;durP1;ratioP1;P1;durP2;ratioP2;P2;SDS_P1;SDS_P2;PMS_P1;PMS_P2;Temp;Humidity;BMP_temperature;BMP_pressure;BME280_temperature;BME280_humidity;BME280_pressure;Samples;Min_cycle;Max_cycle;Signal;HPM_P1;HPM_P2
2023/10/14 00:01:31;;;;;;;0.70;0.50;;;23.10;99.90;;;;;;5071026;28;20216;-79
2023/10/14 00:04:04;;;;;;;3.53;0.50;;;23.30;99.90;;;;;;5069254;28;20184;-78
2023/10/14 00:06:38;;;;;;;1.25;0.43;;;23.40;99.90;;;;;;5065620;28;20186;-79
2023/10/14 00:09:11;;;;;;;0.40;0.40;;;23.60;99.90;;;;;;5074717;28;20692;-79
2023/10/14 00:11:43;;;;;;;0.73;0.40;;;23.80;99.90;;;;;;5076196;28;20257;-77
2023/10/14 00:14:17;;;;;;;2.55;0.43;;;23.90;99.90;;;;;;5072928;28;20232;-77
2023/10/14 00:16:51;;;;;;;0.63;0.47;;;23.90;99.90;;;;;;5056050;28;20193;-78
2023/10/14 00:19:22;;;;;;;1.13;0.60;;;24.00;99.90;;;;;;5095960;28;20226;-80
2023/10/14 00:21:53;;;;;;;3.60;0.47;;;24.00;99.90;;;;;;5096148;28;20726;-78
2023/10/14 00:24:27;;;;;;;0.57;0.32;;;24.20;99.90;;;;;;5096166;28;20192;-78
2023/10/14 00:26:59;;;;;;;0.70;0.30;;;24.40;99.90;;;;;;5096268;28;20211;-80
2023/10/14 00:29:30;;;;;;;0.75;0.40;;;24.40;99.90;;;;;;5095812;28;20184;-78
2023/10/14 00:32:04;;;;;;;2.30;0.50;;;24.50;99.90;;;;;;5096533;28;20188;-79
2023/10/14 00:34:35;;;;;;;1.13;0.30;;;24.60;99.90;;;;;;5095129;28;20192;-79
2023/10/14 00:37:08;;;;;;;1.20;0.20;;;24.70;99.90;;;;;;5095776;28;20561;-76
2023/10/14 00:39:38;;;;;;;0.32;0.20;;;24.90;99.90;;;;;;5095807;28;20728;-78
2023/10/14 00:42:10;;;;;;;0.80;0.20;;;24.80;99.90;;;;;;5095437;28;20522;-75
2023/10/14 00:44:40;;;;;;;0.65;0.22;;;25.00;99.90;;;;;;5095752;28;20188;-75
2023/10/14 00:47:15;;;;;;;0.90;0.32;;;25.20;99.90;;;;;;5095390;28;20229;-78
2023/10/14 00:49:52;;;;;;;0.60;0.30;;;25.30;99.90;;;;;;5095463;28;20239;-76
2023/10/14 00:52:22;;;;;;;0.50;0.50;;;25.40;99.90;;;;;;5095193;28;20184;-75
2023/10/14 00:55:12;;;;;;;3.20;0.45;;;25.50;99.90;;;;;;5095571;28;20188;-76
2023/10/14 00:57:54;;;;;;;3.50;0.50;;;25.50;99.90;;;;;;5095025;28;20195;-75
2023/10/14 01:00:34;;;;;;;0.80;0.30;;;25.60;99.90;;;;;;5095559;28;20696;-78
2023/10/14 01:03:10;;;;;;;0.98;0.28;;;25.80;99.90;;;;;;5095151;28;20196;-78
2023/10/14 01:05:41;;;;;;;1.63;0.30;;;25.80;99.90;;;;;;5074530;28;20199;-75
2023/10/14 01:08:13;;;;;;;2.03;0.32;;;25.80;99.90;;;;;;5066604;28;20308;-77
2023/10/14 01:10:44;;;;;;;0.43;0.30;;;25.90;99.90;;;;;;5073937;28;20606;-75
2023/10/14 01:13:16;;;;;;;1.73;0.28;;;25.90;99.90;;;;;;5064907;28;20263;-76
2023/10/14 01:15:49;;;;;;;0.85;0.30;;;26.10;99.90;;;;;;5054686;28;20285;-76
2023/10/14 01:18:22;;;;;;;0.65;0.30;;;26.30;99.90;;;;;;5062978;28;20633;-74
2023/10/14 01:20:53;;;;;;;0.82;0.30;;;26.40;99.90;;;;;;5068660;28;20224;-75
2023/10/14 01:23:26;;;;;;;0.73;0.30;;;26.40;99.90;;;;;;5061401;28;20193;-76
2023/10/14 01:26:03;;;;;;;2.20;0.30;;;26.50;99.90;;;;;;5065480;28;20201;-77
2023/10/14 01:28:34;;;;;;;0.57;0.30;;;26.50;99.90;;;;;;5067374;28;20190;-74
2023/10/14 01:31:42;;;;;;;0.93;0.30;;;26.50;99.90;;;;;;5070442;28;20236;-75
2023/10/14 01:34:24;;;;;;;0.75;0.50;;;26.60;99.90;;;;;;5057159;28;20199;-77
2023/10/14 01:36:56;;;;;;;2.72;0.28;;;26.70;99.90;;;;;;5059288;28;20189;-75
2023/10/14 01:39:28;;;;;;;0.30;0.30;;;26.90;99.90;;;;;;5070446;28;20205;-74
2023/10/14 01:41:59;;;;;;;0.93;0.32;;;26.90;99.90;;;;;;5065978;28;20260;-77
2023/10/14 01:44:30;;;;;;;0.50;0.45;;;26.90;99.90;;;;;;5072885;28;20219;-77
2023/10/14 01:47:01;;;;;;;1.13;0.40;;;27.00;99.90;;;;;;5054396;28;20190;-77
2023/10/14 01:49:36;;;;;;;1.77;0.60;;;27.20;99.90;;;;;;5065625;28;20225;-75
2023/10/14 01:52:08;;;;;;;1.70;0.70;;;27.20;99.90;;;;;;5058024;28;20209;-75
2023/10/14 01:54:41;;;;;;;0.65;0.60;;;27.30;99.90;;;;;;5059972;28;20594;-76
2023/10/14 01:57:16;;;;;;;1.30;0.50;;;27.20;99.90;;;;;;5056292;28;20198;-75
2023/10/14 01:59:49;;;;;;;1.08;0.57;;;27.30;99.90;;;;;;5071254;28;20636;-75
2023/10/14 02:02:21;;;;;;;0.50;0.50;;;27.20;99.90;;;;;;5053755;28;20279;-74
2023/10/14 02:04:56;;;;;;;1.70;0.55;;;27.00;99.90;;;;;;5053453;28;20197;-74
2023/10/14 02:07:27;;;;;;;2.15;0.60;;;27.10;99.90;;;;;;5053389;28;20283;-77
2023/10/14 02:10:03;;;;;;;0.60;0.50;;;27.00;99.90;;;;;;5055415;28;20203;-75
2023/10/14 02:12:35;;;;;;;1.13;0.60;;;27.20;99.90;;;;;;5053739;28;20293;-76
2023/10/14 02:15:08;;;;;;;2.30;0.70;;;27.10;99.90;;;;;;5061294;28;20193;-78
2023/10/14 02:17:39;;;;;;;0.60;0.50;;;27.10;99.90;;;;;;5065466;28;20201;-79
2023/10/14 02:20:19;;;;;;;1.23;0.60;;;27.20;99.90;;;;;;5072212;28;20276;-76
2023/10/14 02:22:51;;;;;;;0.70;0.68;;;27.30;99.90;;;;;;5053542;28;20262;-75
2023/10/14 02:25:27;;;;;;;1.98;0.60;;;27.20;99.90;;;;;;5054278;28;20228;-74
2023/10/14 02:27:58;;;;;;;1.45;0.75;;;27.20;99.90;;;;;;5062981;28;20231;-75
2023/10/14 02:30:32;;;;;;;1.30;0.50;;;27.20;99.90;;;;;;5089514;28;20188;-75
2023/10/14 02:33:03;;;;;;;0.50;0.50;;;27.30;99.90;;;;;;5058772;28;20215;-74
2023/10/14 02:35:34;;;;;;;1.75;0.77;;;27.30;99.90;;;;;;5058504;28;20284;-74
2023/10/14 02:38:05;;;;;;;2.30;0.63;;;27.30;99.90;;;;;;5062272;28;20251;-74
2023/10/14 02:40:37;;;;;;;0.75;0.70;;;27.40;99.90;;;;;;5053130;28;20213;-75
2023/10/14 02:43:08;;;;;;;1.60;0.80;;;27.40;99.90;;;;;;5053377;28;20633;-75
2023/10/14 02:45:41;;;;;;;0.50;0.50;;;27.40;99.90;;;;;;5053359;28;20205;-77
2023/10/14 02:48:12;;;;;;;0.85;0.60;;;27.60;99.90;;;;;;5060191;28;20236;-76
2023/10/14 02:50:50;;;;;;;1.02;0.60;;;27.60;99.90;;;;;;5058807;28;20197;-74
2023/10/14 02:53:27;;;;;;;0.70;0.60;;;27.60;99.90;;;;;;5054995;28;20197;-76
2023/10/14 02:56:04;;;;;;;0.93;0.70;;;27.70;99.90;;;;;;5055326;28;20231;-75
2023/10/14 02:58:35;;;;;;;1.55;0.70;;;27.70;99.90;;;;;;5061383;28;20193;-76
2023/10/14 03:01:12;;;;;;;1.45;0.60;;;27.70;99.90;;;;;;5056316;28;20322;-78
2023/10/14 03:03:46;;;;;;;1.85;0.82;;;27.60;99.90;;;;;;5061861;28;20189;-78
2023/10/14 03:06:18;;;;;;;1.80;0.60;;;27.60;99.90;;;;;;5062102;28;20193;-77
2023/10/14 03:08:57;;;;;;;0.50;0.45;;;27.60;99.90;;;;;;5055223;28;20707;-75
2023/10/14 03:12:01;;;;;;;0.82;0.60;;;27.80;99.90;;;;;;5068475;28;20204;-78
2023/10/14 03:14:40;;;;;;;2.05;0.60;;;27.80;99.90;;;;;;5049080;28;20197;-76
2023/10/14 03:20:09;;;;;;;0.68;0.60;;;28.00;99.90;;;;;;5062404;28;20235;-78
2023/10/14 03:22:40;;;;;;;1.60;0.60;;;28.00;99.90;;;;;;5055137;28;20692;-76
2023/10/14 03:25:12;;;;;;;0.50;0.50;;;28.10;99.90;;;;;;5053406;28;20677;-75
2023/10/14 03:27:45;;;;;;;0.70;0.70;;;28.10;99.90;;;;;;5061934;28;20316;-79
2023/10/14 03:30:17;;;;;;;0.90;0.80;;;28.20;99.90;;;;;;5061839;28;20201;-76
2023/10/14 03:32:48;;;;;;;0.98;0.80;;;28.20;99.90;;;;;;5056787;28;20771;-75
2023/10/14 03:35:21;;;;;;;18.65;2.55;;;28.30;99.90;;;;;;5063236;28;20200;-77
2023/10/14 03:37:59;;;;;;;2.45;0.70;;;28.30;99.90;;;;;;5056308;28;20198;-75
2023/10/14 03:40:51;;;;;;;2.58;1.17;;;28.20;99.30;;;;;;5055006;28;20530;-75
2023/10/14 03:43:27;;;;;;;0.70;0.70;;;28.30;98.80;;;;;;5073107;28;20231;-77
2023/10/14 03:46:03;;;;;;;1.23;0.70;;;28.40;99.00;;;;;;5057903;28;20201;-76
2023/10/14 03:48:45;;;;;;;1.20;0.60;;;28.30;99.60;;;;;;5071532;28;20239;-76
2023/10/14 03:51:24;;;;;;;0.57;0.57;;;28.40;98.70;;;;;;5070706;28;20873;-75
2023/10/14 03:54:01;;;;;;;1.40;0.70;;;28.40;98.80;;;;;;5052447;28;20196;-75
2023/10/14 03:56:32;;;;;;;0.90;0.60;;;28.50;98.30;;;;;;5054126;28;20196;-78
2023/10/14 03:59:11;;;;;;;1.98;0.70;;;28.50;98.00;;;;;;5071526;28;20196;-75
2023/10/14 04:01:45;;;;;;;0.70;0.70;;;28.40;97.30;;;;;;5072667;28;20551;-74
2023/10/14 04:04:19;;;;;;;2.30;0.75;;;28.50;95.50;;;;;;5072419;28;20641;-75
2023/10/14 04:07:13;;;;;;;0.60;0.60;;;28.50;94.90;;;;;;5072384;28;20220;-74
2023/10/14 04:09:50;;;;;;;1.02;0.70;;;28.60;94.60;;;;;;5074010;28;20657;-77
2023/10/14 04:12:37;;;;;;;0.77;0.60;;;28.70;94.70;;;;;;5076228;28;20531;-76
2023/10/14 04:15:33;;;;;;;1.17;0.77;;;28.70;94.00;;;;;;5076085;28;20589;-74
2023/10/14 04:18:12;;;;;;;1.48;0.98;;;28.80;94.20;;;;;;5076016;28;20186;-73
2023/10/14 04:20:46;;;;;;;0.77;0.77;;;29.00;93.70;;;;;;5075924;28;20534;-77
2023/10/14 04:23:29;;;;;;;2.35;0.90;;;29.00;93.50;;;;;;5076175;28;20211;-75
2023/10/14 04:26:04;;;;;;;1.35;0.65;;;28.90;93.10;;;;;;5076015;28;20189;-76
2023/10/14 04:28:39;;;;;;;1.10;0.88;;;28.90;93.40;;;;;;5075774;28;20192;-76
2023/10/14 04:31:16;;;;;;;0.90;0.80;;;29.00;92.70;;;;;;5075914;28;20200;-76
2023/10/14 04:33:52;;;;;;;0.98;0.90;;;29.10;92.00;;;;;;5076150;28;20210;-78
2023/10/14 04:36:53;;;;;;;1.23;0.90;;;29.10;92.10;;;;;;5075716;28;20280;-75
2023/10/14 04:39:32;;;;;;;2.33;1.10;;;29.20;92.10;;;;;;5075632;28;20203;-78
2023/10/14 04:44:58;;;;;;;2.20;1.13;;;29.10;92.00;;;;;;5075676;28;20290;-74
2023/10/14 04:47:37;;;;;;;2.60;0.90;;;29.10;92.60;;;;;;5075751;28;20367;-74
2023/10/14 04:50:13;;;;;;;1.95;0.90;;;29.20;92.80;;;;;;5075237;28;20290;-72
2023/10/14 04:52:48;;;;;;;3.25;0.90;;;29.20;92.40;;;;;;5075542;28;20184;-76
2023/10/14 04:58:11;;;;;;;1.02;0.90;;;29.20;92.80;;;;;;5067945;28;20279;-75
2023/10/14 05:00:46;;;;;;;0.80;0.80;;;29.20;92.60;;;;;;5075439;28;20195;-73
2023/10/14 05:03:20;;;;;;;0.75;0.75;;;29.10;92.10;;;;;;5075218;28;20220;-73
2023/10/14 05:05:55;;;;;;;1.00;0.90;;;29.20;91.70;;;;;;5075143;28;20217;-76
2023/10/14 05:08:44;;;;;;;1.40;0.95;;;29.10;91.60;;;;;;5075115;28;20224;-75
2023/10/14 05:11:18;;;;;;;0.60;0.60;;;29.10;92.00;;;;;;5075221;28;20211;-77
2023/10/14 05:13:53;;;;;;;3.65;1.02;;;29.00;91.70;;;;;;5075469;28;20205;-75
2023/10/14 05:16:26;;;;;;;0.85;0.80;;;28.90;91.40;;;;;;5075467;28;20199;-74
2023/10/14 05:19:04;;;;;;;0.70;0.70;;;29.00;90.70;;;;;;5074749;28;20189;-74
2023/10/14 05:21:42;;;;;;;1.45;0.85;;;28.90;90.60;;;;;;5074683;28;20246;-75
2023/10/14 05:24:14;;;;;;;1.55;1.10;;;28.80;90.00;;;;;;5074926;28;20196;-75
2023/10/14 05:26:46;;;;;;;1.83;0.90;;;28.60;89.80;;;;;;5074831;28;20185;-75
2023/10/14 05:29:19;;;;;;;1.02;0.80;;;28.40;90.00;;;;;;5074732;28;20189;-74
2023/10/14 05:31:50;;;;;;;0.70;0.70;;;28.30;90.10;;;;;;5074749;28;20273;-74
2023/10/14 05:34:24;;;;;;;1.92;0.75;;;28.20;89.40;;;;;;5074645;28;20189;-74
2023/10/14 05:36:55;;;;;;;1.00;0.90;;;28.10;89.30;;;;;;5074620;28;20199;-74
2023/10/14 05:39:27;;;;;;;0.82;0.80;;;28.20;89.20;;;;;;5074585;28;20193;-75
2023/10/14 05:42:04;;;;;;;0.80;0.80;;;28.30;89.80;;;;;;5074520;28;20221;-74
2023/10/14 05:44:34;;;;;;;1.55;0.88;;;28.20;89.10;;;;;;5074487;28;20239;-75
2023/10/14 05:47:05;;;;;;;0.63;0.60;;;28.10;89.80;;;;;;5074280;28;20197;-75
2023/10/14 05:49:38;;;;;;;1.00;0.90;;;27.90;89.50;;;;;;5074374;28;20622;-77
2023/10/14 05:52:08;;;;;;;1.65;0.70;;;27.70;89.60;;;;;;5074266;28;20577;-74
2023/10/14 05:54:40;;;;;;;0.88;0.70;;;27.60;89.70;;;;;;5074531;28;20196;-73
2023/10/14 05:57:11;;;;;;;2.00;1.00;;;27.40;90.00;;;;;;5074364;28;20197;-74
2023/10/14 05:59:43;;;;;;;1.02;0.80;;;27.40;90.10;;;;;;5056978;28;20193;-74
2023/10/14 06:02:14;;;;;;;0.88;0.88;;;27.30;90.10;;;;;;5054069;28;20214;-74
2023/10/14 06:04:50;;;;;;;0.85;0.75;;;27.20;90.00;;;;;;5054123;28;20189;-74
2023/10/14 06:07:21;;;;;;;1.08;0.80;;;27.20;90.20;;;;;;5053938;28;20274;-76
2023/10/14 06:09:51;;;;;;;0.80;0.80;;;27.10;90.40;;;;;;5054115;28;20637;-76
2023/10/14 06:12:23;;;;;;;1.77;0.80;;;27.00;90.60;;;;;;5053987;28;20220;-73
2023/10/14 06:14:53;;;;;;;1.05;0.80;;;27.00;90.40;;;;;;5054054;28;20232;-74
2023/10/14 06:17:24;;;;;;;1.33;0.75;;;27.00;90.60;;;;;;5053827;28;20642;-75
2023/10/14 06:19:57;;;;;;;0.63;0.63;;;26.90;90.50;;;;;;5053835;28;20197;-74
2023/10/14 06:22:28;;;;;;;1.70;0.82;;;26.90;90.80;;;;;;5054308;28;20228;-76
2023/10/14 06:25:00;;;;;;;1.42;0.88;;;26.90;90.80;;;;;;5053703;28;20700;-74
2023/10/14 06:27:31;;;;;;;2.17;0.80;;;26.90;91.00;;;;;;5053937;28;20725;-74
2023/10/14 06:30:02;;;;;;;1.10;1.00;;;26.80;91.00;;;;;;5053581;28;20204;-74
2023/10/14 06:32:33;;;;;;;1.40;0.90;;;26.80;91.30;;;;;;5052759;28;20235;-74
2023/10/14 06:35:06;;;;;;;1.15;0.88;;;26.80;91.30;;;;;;5053861;28;20190;-75
2023/10/14 06:37:41;;;;;;;2.47;1.00;;;26.70;91.20;;;;;;5053756;28;20189;-76
2023/10/14 06:40:13;;;;;;;0.90;0.70;;;26.60;91.50;;;;;;5053562;28;20184;-74
2023/10/14 06:42:45;;;;;;;0.77;0.75;;;26.60;91.70;;;;;;5053433;28;20309;-74
2023/10/14 06:45:18;;;;;;;2.45;0.90;;;26.50;91.70;;;;;;5053303;28;20642;-74
2023/10/14 06:47:50;;;;;;;0.70;0.70;;;26.40;91.70;;;;;;5053209;28;20200;-73
2023/10/14 06:50:26;;;;;;;1.02;0.80;;;26.40;91.80;;;;;;5053513;28;20280;-74
2023/10/14 06:53:00;;;;;;;1.15;0.70;;;26.30;92.40;;;;;;5053635;28;20199;-73
2023/10/14 06:55:37;;;;;;;1.25;0.80;;;26.30;92.20;;;;;;5053332;28;20252;-76
2023/10/14 06:58:08;;;;;;;1.63;0.70;;;26.20;92.20;;;;;;5053243;28;20231;-73
2023/10/14 07:00:39;;;;;;;3.08;0.90;;;26.20;92.40;;;;;;5053102;28;20189;-75
2023/10/14 07:03:12;;;;;;;1.13;0.88;;;26.10;92.40;;;;;;5053321;28;20225;-76
2023/10/14 07:05:46;;;;;;;2.80;0.70;;;26.10;92.40;;;;;;5053159;28;20645;-75
2023/10/14 07:08:19;;;;;;;1.83;0.90;;;26.10;92.60;;;;;;5053424;28;20193;-76
2023/10/14 07:10:50;;;;;;;0.80;0.70;;;26.10;92.70;;;;;;5053350;28;20197;-75
2023/10/14 07:13:21;;;;;;;1.60;0.90;;;26.10;92.80;;;;;;5053221;28;20216;-76
2023/10/14 07:15:53;;;;;;;1.85;0.80;;;26.00;92.70;;;;;;5053065;28;20641;-76
2023/10/14 07:18:25;;;;;;;0.88;0.80;;;26.00;92.90;;;;;;5053165;28;20196;-76
2023/10/14 07:21:03;;;;;;;0.95;0.70;;;25.90;92.90;;;;;;5053041;28;20263;-77
2023/10/14 07:23:36;;;;;;;0.80;0.70;;;25.80;93.40;;;;;;5053026;28;20221;-75
2023/10/14 07:26:11;;;;;;;1.73;0.90;;;25.80;92.70;;;;;;5053166;28;20220;-75
2023/10/14 07:28:46;;;;;;;0.85;0.77;;;25.80;92.70;;;;;;5052801;28;20204;-76
2023/10/14 07:31:17;;;;;;;0.93;0.70;;;25.80;92.40;;;;;;5052908;28;20189;-73
2023/10/14 07:33:48;;;;;;;1.58;0.82;;;25.80;92.40;;;;;;5053012;28;20266;-74
2023/10/14 07:36:20;;;;;;;1.00;0.63;;;26.00;92.20;;;;;;5052952;28;20285;-74
2023/10/14 07:38:51;;;;;;;3.65;0.90;;;25.90;92.20;;;;;;5052862;28;20242;-74
2023/10/14 07:41:26;;;;;;;5.38;0.90;;;25.90;92.00;;;;;;5052859;28;20229;-73
2023/10/14 07:43:57;;;;;;;0.80;0.68;;;26.00;92.10;;;;;;5054654;28;20218;-75
2023/10/14 07:46:27;;;;;;;1.63;0.70;;;26.00;91.90;;;;;;5056652;28;20664;-75
2023/10/14 07:48:58;;;;;;;1.05;0.88;;;25.90;92.00;;;;;;5056392;28;20324;-75
2023/10/14 07:51:31;;;;;;;1.02;0.90;;;25.90;92.40;;;;;;5056538;28;20280;-76
2023/10/14 07:54:02;;;;;;;2.15;1.00;;;25.90;92.10;;;;;;5056487;28;20229;-74
2023/10/14 07:56:33;;;;;;;1.60;1.20;;;25.80;92.00;;;;;;5056512;28;20185;-76
2023/10/14 07:59:04;;;;;;;1.58;0.93;;;25.80;92.40;;;;;;5055581;28;20190;-76
2023/10/14 08:01:37;;;;;;;2.45;1.30;;;25.60;92.00;;;;;;5061316;28;20193;-77
2023/10/14 08:04:14;;;;;;;2.50;1.67;;;25.60;92.10;;;;;;5076328;28;20239;-74
2023/10/14 08:06:46;;;;;;;2.75;1.50;;;25.60;92.20;;;;;;5076168;28;20227;-75
2023/10/14 08:09:24;;;;;;;1.50;1.40;;;25.40;92.40;;;;;;5076347;28;20189;-74
2023/10/14 08:11:55;;;;;;;3.65;1.50;;;25.40;92.40;;;;;;5076250;28;20645;-73
2023/10/14 08:14:30;;;;;;;2.83;1.50;;;25.30;92.50;;;;;;5076282;28;20650;-74
2023/10/14 08:17:01;;;;;;;2.72;1.65;;;25.30;92.50;;;;;;5076221;28;20184;-77
2023/10/14 08:19:32;;;;;;;2.80;1.50;;;25.20;92.60;;;;;;5076152;28;20185;-75
2023/10/14 08:22:08;;;;;;;2.08;1.48;;;25.20;92.50;;;;;;5075944;28;20193;-74
2023/10/14 08:24:39;;;;;;;3.03;1.10;;;25.10;92.50;;;;;;5076133;28;20193;-74
2023/10/14 08:27:12;;;;;;;1.23;1.08;;;25.10;92.50;;;;;;5075684;28;20236;-75
2023/10/14 08:29:43;;;;;;;2.22;1.10;;;25.00;92.50;;;;;;5076056;28;20193;-76
2023/10/14 08:32:14;;;;;;;1.08;0.98;;;25.00;92.50;;;;;;5076071;28;20204;-73
2023/10/14 08:34:45;;;;;;;1.63;1.08;;;25.00;92.50;;;;;;5076177;28;20196;-76
2023/10/14 08:37:20;;;;;;;1.75;1.30;;;24.90;92.60;;;;;;5075762;28;20207;-76
2023/10/14 08:39:51;;;;;;;2.58;1.30;;;24.80;93.00;;;;;;5075676;28;20254;-74
2023/10/14 08:42:23;;;;;;;1.40;1.23;;;24.80;92.80;;;;;;5075703;28;20185;-74
2023/10/14 08:44:58;;;;;;;1.50;1.15;;;24.80;92.80;;;;;;5074669;28;20185;-74
2023/10/14 08:47:33;;;;;;;1.83;1.20;;;24.80;93.00;;;;;;5075638;28;20188;-73
2023/10/14 08:50:09;;;;;;;1.80;1.30;;;24.70;93.20;;;;;;5076140;28;20286;-74
2023/10/14 08:52:42;;;;;;;2.22;1.40;;;24.70;93.30;;;;;;5075688;28;20211;-73
2023/10/14 08:55:18;;;;;;;2.22;1.30;;;24.60;93.60;;;;;;5075019;28;20189;-73
2023/10/14 08:57:50;;;;;;;1.98;1.10;;;24.60;93.80;;;;;;5075427;28;20193;-73
2023/10/14 09:00:23;;;;;;;2.47;1.50;;;24.50;93.90;;;;;;5075597;28;20205;-73
2023/10/14 09:02:56;;;;;;;2.22;1.50;;;24.50;94.00;;;;;;5075570;28;20223;-73
2023/10/14 09:05:28;;;;;;;3.40;1.40;;;24.40;94.30;;;;;;5075552;28;20279;-74
2023/10/14 09:08:01;;;;;;;1.40;1.20;;;24.40;94.40;;;;;;5075397;28;20196;-73
2023/10/14 09:10:32;;;;;;;2.10;1.50;;;24.30;94.60;;;;;;5075038;28;20189;-73
2023/10/14 09:13:04;;;;;;;2.90;1.40;;;24.20;94.80;;;;;;5075396;28;20189;-74
2023/10/14 09:15:38;;;;;;;2.45;1.40;;;24.20;94.80;;;;;;5075158;28;20284;-75
2023/10/14 09:18:15;;;;;;;2.80;1.40;;;24.20;94.90;;;;;;5075153;28;20227;-77
2023/10/14 09:20:51;;;;;;;2.00;1.60;;;24.20;95.30;;;;;;5075095;28;20188;-75
2023/10/14 09:23:27;;;;;;;2.42;1.50;;;24.20;95.00;;;;;;5075573;28;20223;-74
2023/10/14 09:26:01;;;;;;;1.95;1.42;;;24.10;95.00;;;;;;5074687;28;20193;-75
2023/10/14 09:28:34;;;;;;;2.30;1.40;;;24.10;95.20;;;;;;5074791;28;20676;-72
2023/10/14 09:31:07;;;;;;;4.20;1.80;;;24.00;95.30;;;;;;5074856;28;20200;-73
2023/10/14 09:33:41;;;;;;;4.70;2.10;;;24.00;95.30;;;;;;5074746;28;20246;-73
2023/10/14 09:36:14;;;;;;;2.60;2.15;;;24.00;95.40;;;;;;5074725;28;20185;-74
2023/10/14 09:38:50;;;;;;;3.78;2.33;;;23.90;95.50;;;;;;5074690;28;20605;-73
2023/10/14 09:41:22;;;;;;;2.10;1.70;;;23.80;95.60;;;;;;5074425;28;20196;-73
2023/10/14 09:43:54;;;;;;;3.05;1.40;;;23.80;95.70;;;;;;5074581;28;20307;-73
2023/10/14 09:46:27;;;;;;;2.38;1.10;;;23.70;95.90;;;;;;5075364;28;20678;-75
2023/10/14 09:48:59;;;;;;;1.35;1.10;;;23.70;96.00;;;;;;5074320;28;20235;-74
2023/10/14 09:51:32;;;;;;;1.52;1.20;;;23.60;96.10;;;;;;5073166;28;20680;-76
2023/10/14 09:54:06;;;;;;;1.73;1.00;;;23.50;96.20;;;;;;5074160;28;20637;-75
2023/10/14 09:56:40;;;;;;;1.38;1.13;;;23.40;96.30;;;;;;5074298;28;20188;-75
2023/10/14 09:59:12;;;;;;;2.72;1.25;;;23.40;96.40;;;;;;5074228;28;20540;-76
2023/10/14 10:01:43;;;;;;;2.17;1.42;;;23.30;96.60;;;;;;5072158;28;20215;-75
2023/10/14 10:04:19;;;;;;;1.95;1.40;;;23.20;96.90;;;;;;5071562;28;20219;-75
2023/10/14 10:07:04;;;;;;;2.22;1.50;;;23.20;97.10;;;;;;5072953;28;20224;-75
2023/10/14 10:10:10;;;;;;;2.50;1.65;;;23.10;97.70;;;;;;5074578;28;20188;-74
2023/10/14 10:12:43;;;;;;;3.35;1.90;;;23.00;98.30;;;;;;5074154;28;20235;-75
2023/10/14 10:15:19;;;;;;;2.67;1.73;;;22.90;98.50;;;;;;5073913;28;20553;-76
2023/10/14 10:18:05;;;;;;;3.10;1.80;;;22.80;98.50;;;;;;5073848;28;20232;-75
2023/10/14 10:20:40;;;;;;;3.45;1.88;;;22.80;98.80;;;;;;5073821;28;20188;-76
2023/10/14 10:23:14;;;;;;;3.22;1.77;;;22.70;98.70;;;;;;5073618;28;20231;-76
2023/10/14 10:25:51;;;;;;;3.50;2.15;;;22.60;98.40;;;;;;5073859;28;20271;-76
2023/10/14 10:28:46;;;;;;;3.03;1.83;;;22.50;98.40;;;;;;5073702;28;20189;-76
2023/10/14 10:31:21;;;;;;;3.45;1.88;;;22.50;98.20;;;;;;5073725;28;20664;-76
2023/10/14 10:34:01;;;;;;;3.08;1.75;;;22.50;98.20;;;;;;5073653;28;20610;-75
2023/10/14 10:36:34;;;;;;;3.88;1.90;;;22.50;98.20;;;;;;5073664;28;20185;-76
2023/10/14 10:39:15;;;;;;;2.53;1.60;;;22.50;98.00;;;;;;5073376;28;20235;-75
2023/10/14 10:41:53;;;;;;;2.35;1.55;;;22.50;97.80;;;;;;5073764;28;20189;-77
2023/10/14 10:44:27;;;;;;;2.60;1.67;;;22.50;97.50;;;;;;5073516;28;20589;-77
2023/10/14 10:47:03;;;;;;;2.60;1.70;;;22.50;97.50;;;;;;5073442;28;20728;-75
2023/10/14 10:49:56;;;;;;;2.55;1.60;;;22.50;97.60;;;;;;5073503;28;20232;-75
2023/10/14 10:52:29;;;;;;;2.33;1.50;;;22.50;97.70;;;;;;5073409;28;20196;-75
2023/10/14 10:55:00;;;;;;;3.83;1.73;;;22.50;97.80;;;;;;5073572;28;20208;-76
2023/10/14 10:57:34;;;;;;;1.88;1.55;;;22.40;97.80;;;;;;5073474;28;20530;-75
2023/10/14 11:00:10;;;;;;;1.90;1.63;;;22.40;97.90;;;;;;5071772;28;20251;-76
2023/10/14 11:02:41;;;;;;;2.25;1.70;;;22.40;97.80;;;;;;5054076;28;20208;-75
2023/10/14 11:05:12;;;;;;;3.50;1.50;;;22.30;97.80;;;;;;5061064;28;20282;-74
2023/10/14 11:07:43;;;;;;;3.03;1.77;;;22.30;97.90;;;;;;5059652;28;20197;-75
2023/10/14 11:10:16;;;;;;;1.90;1.70;;;22.20;98.00;;;;;;5060988;28;20248;-75
2023/10/14 11:12:49;;;;;;;2.70;1.70;;;22.20;98.20;;;;;;5068987;28;20283;-76
2023/10/14 11:15:25;;;;;;;2.67;1.67;;;22.20;98.30;;;;;;5056992;28;20197;-76
2023/10/14 11:17:57;;;;;;;4.90;1.77;;;22.20;98.40;;;;;;5060128;28;20215;-76
2023/10/14 11:20:31;;;;;;;3.78;1.88;;;22.10;98.40;;;;;;5055751;28;20198;-75
2023/10/14 11:23:03;;;;;;;2.22;1.80;;;22.10;98.40;;;;;;5062743;28;20196;-75
2023/10/14 11:25:40;;;;;;;4.05;2.30;;;22.10;98.60;;;;;;5071886;28;20558;-76
2023/10/14 11:28:14;;;;;;;2.40;2.10;;;22.10;98.70;;;;;;5073281;28;20193;-75
2023/10/14 11:30:46;;;;;;;2.30;2.00;;;22.10;98.90;;;;;;5055885;28;20197;-76
2023/10/14 11:33:18;;;;;;;4.43;2.17;;;22.10;99.00;;;;;;5055895;28;20286;-75
2023/10/14 11:35:52;;;;;;;2.38;2.17;;;22.10;99.20;;;;;;5061089;28;20208;-76
2023/10/14 11:38:27;;;;;;;3.63;1.70;;;22.00;99.30;;;;;;5063851;28;20675;-75
2023/10/14 11:41:02;;;;;;;2.92;1.50;;;22.10;99.50;;;;;;5067979;28;20210;-75
2023/10/14 11:43:34;;;;;;;1.98;1.33;;;22.10;99.50;;;;;;5056832;28;20220;-75
2023/10/14 11:46:05;;;;;;;1.70;1.05;;;22.10;99.50;;;;;;5059542;28;20203;-76
2023/10/14 11:48:38;;;;;;;1.40;0.90;;;22.10;99.60;;;;;;5060204;28;20746;-75
2023/10/14 11:51:11;;;;;;;1.42;0.98;;;22.10;99.70;;;;;;5056318;28;20280;-74
2023/10/14 11:53:46;;;;;;;1.25;0.90;;;22.10;99.60;;;;;;5060073;28;20242;-75
2023/10/14 11:56:17;;;;;;;0.85;0.80;;;22.10;99.60;;;;;;5061655;28;20204;-75
2023/10/14 11:58:51;;;;;;;1.23;0.80;;;22.10;99.70;;;;;;5056417;28;20204;-76
2023/10/14 12:01:24;;;;;;;1.10;0.75;;;22.00;99.80;;;;;;5060720;28;20189;-75
2023/10/14 12:03:55;;;;;;;0.85;0.77;;;22.00;99.70;;;;;;5067726;28;20263;-75
2023/10/14 12:06:27;;;;;;;2.13;0.90;;;22.00;99.70;;;;;;5073325;28;20686;-76
2023/10/14 12:08:58;;;;;;;0.95;0.80;;;21.90;99.80;;;;;;5057500;28;20201;-74
2023/10/14 12:11:29;;;;;;;1.45;0.73;;;21.90;99.80;;;;;;5059820;28;20562;-75
2023/10/14 12:14:01;;;;;;;0.75;0.75;;;21.80;99.90;;;;;;5058315;28;20201;-74
2023/10/14 12:16:33;;;;;;;1.90;0.90;;;21.80;99.90;;;;;;5055023;28;20685;-75
2023/10/14 12:19:04;;;;;;;1.23;1.00;;;21.70;99.90;;;;;;5056537;28;20194;-76
2023/10/14 12:21:35;;;;;;;2.35;0.80;;;21.70;99.90;;;;;;5061906;28;20262;-75
2023/10/14 12:24:09;;;;;;;1.48;1.00;;;21.60;99.90;;;;;;5053729;28;20217;-74
2023/10/14 12:26:43;;;;;;;0.80;0.70;;;21.60;99.90;;;;;;5056081;28;20280;-74
2023/10/14 12:29:20;;;;;;;1.70;0.70;;;21.50;99.90;;;;;;5065474;28;20692;-74
2023/10/14 12:31:51;;;;;;;1.25;0.70;;;21.40;99.90;;;;;;5057958;28;20201;-75
2023/10/14 12:34:22;;;;;;;0.75;0.73;;;21.30;99.90;;;;;;5061020;28;20211;-74
2023/10/14 12:36:54;;;;;;;0.90;0.80;;;21.30;99.90;;;;;;5058630;28;20235;-76
2023/10/14 12:39:33;;;;;;;1.88;0.90;;;21.20;99.90;;;;;;5062385;28;20197;-74
2023/10/14 12:42:06;;;;;;;0.85;0.60;;;21.20;99.90;;;;;;5063943;28;20751;-74
2023/10/14 12:44:39;;;;;;;0.70;0.60;;;21.10;99.90;;;;;;5061992;28;20582;-74
2023/10/14 12:47:14;;;;;;;1.50;0.70;;;21.00;99.90;;;;;;5066839;28;20208;-75
2023/10/14 12:49:44;;;;;;;0.60;0.60;;;21.00;99.90;;;;;;5058941;28;20323;-74
2023/10/14 12:52:19;;;;;;;1.88;0.60;;;20.90;99.90;;;;;;5062544;28;20236;-75
2023/10/14 12:54:59;;;;;;;0.70;0.70;;;20.80;99.90;;;;;;5054155;28;20189;-74
2023/10/14 12:57:29;;;;;;;1.58;0.70;;;20.70;99.90;;;;;;5054694;28;20196;-73
2023/10/14 13:00:04;;;;;;;0.80;0.70;;;20.60;99.90;;;;;;5063704;28;20285;-73
2023/10/14 13:02:34;;;;;;;0.70;0.60;;;20.60;99.90;;;;;;5060278;28;20229;-74
2023/10/14 13:05:05;;;;;;;2.38;0.60;;;20.50;99.90;;;;;;5073856;28;20282;-75
2023/10/14 13:07:43;;;;;;;1.77;0.60;;;20.40;99.90;;;;;;5063046;28;20292;-73
2023/10/14 13:10:18;;;;;;;2.58;0.73;;;20.40;99.90;;;;;;5055327;28;20190;-74
2023/10/14 13:12:53;;;;;;;2.08;0.75;;;20.30;99.90;;;;;;5055196;28;20554;-76
2023/10/14 13:15:29;;;;;;;1.73;0.70;;;20.30;99.90;;;;;;5054985;28;20186;-75
2023/10/14 13:18:02;;;;;;;1.60;0.70;;;20.20;99.90;;;;;;5054675;28;20197;-74
2023/10/14 13:20:33;;;;;;;2.70;0.70;;;20.20;99.90;;;;;;5058737;28;20189;-74
2023/10/14 13:23:05;;;;;;;1.13;0.55;;;20.20;99.90;;;;;;5055029;28;20196;-74
2023/10/14 13:25:37;;;;;;;3.60;0.77;;;20.10;99.90;;;;;;5054991;28;20220;-73
2023/10/14 13:28:09;;;;;;;1.88;0.70;;;20.00;99.90;;;;;;5058198;28;20278;-75
2023/10/14 13:30:45;;;;;;;2.53;1.23;;;20.00;99.90;;;;;;5064888;28;20596;-75
2023/10/14 13:33:16;;;;;;;1.08;0.57;;;19.90;99.90;;;;;;5074632;28;20215;-75